Terminal Aerodrome Forecast
Issued by NWS Wilmington, OH

Home | Current Version | Previous Version | Text Only | Print | Product List | Glossary On
Versions: 1 2 3 4 5 6 7 8 9 10 11 12 13 14 15 16 17 18 19 20 21 22 23 24 25 26 27
000
FTUS41 KILN 230900 AAB
TAFDAY
TAF AMD
KDAY 230954Z 2310/2406 00000KT 1/2SM FG OVC001
     FM231500 08005KT P6SM BKN025
     FM231900 09005KT P6SM BKN035
     FM240100 04005KT P6SM VCSH BKN040=

USA.gov is the U.S. government's official web portal to all federal, state and local government web resources and services.